Time;durP1;ratioP1;P1;durP2;ratioP2;P2;SDS_P1;SDS_P2;PMS_P1;PMS_P2;Temp;Humidity;BMP_temperature;BMP_pressure;BME280_temperature;BME280_humidity;BME280_pressure;Samples;Min_cycle;Max_cycle;Signal;HPM_P1;HPM_P2
2021/11/13 00:00:21;;;;;;;5.75;1.48;;;;;;;;;;5090288;28;20039;-58
2021/11/13 00:02:47;;;;;;;17.38;1.95;;;;;;;;;;5094838;28;20402;-58
2021/11/13 00:05:12;;;;;;;6.82;1.48;;;;;;;;;;5093515;28;20032;-58
2021/11/13 00:07:39;;;;;;;8.10;1.70;;;;;;;;;;5097672;28;20398;-59
2021/11/13 00:10:06;;;;;;;13.27;1.55;;;;;;;;;;5092727;28;20039;-59
2021/11/13 00:12:32;;;;;;;8.70;2.80;;;;;;;;;;5100050;28;20147;-59
2021/11/13 00:15:00;;;;;;;3.08;1.80;;;;;;;;;;5091882;28;20146;-59
2021/11/13 00:17:26;;;;;;;10.55;3.63;;;;;;;;;;5092025;28;20058;-59
2021/11/13 00:19:51;;;;;;;14.07;3.50;;;;;;;;;;5096322;28;20056;-59
2021/11/13 00:22:17;;;;;;;11.77;3.70;;;;;;;;;;5076165;28;20032;-58
2021/11/13 00:24:43;;;;;;;14.15;4.20;;;;;;;;;;5094180;28;20426;-58
2021/11/13 00:27:08;;;;;;;8.88;3.42;;;;;;;;;;5093372;28;20040;-58
2021/11/13 00:29:34;;;;;;;10.15;4.35;;;;;;;;;;5092543;28;20020;-59
2021/11/13 00:32:00;;;;;;;11.77;3.75;;;;;;;;;;5077271;28;20027;-60
2021/11/13 00:34:25;;;;;;;13.27;4.07;;;;;;;;;;5096418;28;20063;-60
2021/11/13 00:36:52;;;;;;;8.30;3.13;;;;;;;;;;5095456;28;20400;-60
2021/11/13 00:39:20;;;;;;;15.60;3.58;;;;;;;;;;5095751;28;20058;-60
2021/11/13 00:41:46;;;;;;;9.93;3.72;;;;;;;;;;5092672;28;20038;-60
2021/11/13 00:44:12;;;;;;;11.65;2.35;;;;;;;;;;5092785;28;20634;-60
2021/11/13 00:46:38;;;;;;;11.25;2.67;;;;;;;;;;5094767;28;20529;-60
2021/11/13 00:49:08;;;;;;;7.75;2.22;;;;;;;;;;5092959;28;20129;-60
2021/11/13 00:51:34;;;;;;;7.13;2.58;;;;;;;;;;5096139;28;20020;-60
2021/11/13 00:54:01;;;;;;;5.32;2.40;;;;;;;;;;5088798;28;20036;-60
2021/11/13 00:56:26;;;;;;;15.07;2.13;;;;;;;;;;5096340;28;20027;-59
2021/11/13 00:58:52;;;;;;;6.90;2.67;;;;;;;;;;5096451;28;20028;-60
2021/11/13 01:01:18;;;;;;;10.90;2.08;;;;;;;;;;5075078;28;20047;-60
2021/11/13 01:03:44;;;;;;;12.75;2.70;;;;;;;;;;5092134;28;20453;-60
2021/11/13 01:06:10;;;;;;;10.35;1.80;;;;;;;;;;5095264;28;20039;-60
2021/11/13 01:08:36;;;;;;;25.13;2.20;;;;;;;;;;5094359;28;20024;-60
2021/11/13 01:11:03;;;;;;;8.38;1.80;;;;;;;;;;5078547;28;20034;-60
2021/11/13 01:13:29;;;;;;;6.20;2.40;;;;;;;;;;5072542;28;20490;-60
2021/11/13 01:15:55;;;;;;;7.88;2.25;;;;;;;;;;5096683;28;20031;-60
2021/11/13 01:18:22;;;;;;;8.38;1.70;;;;;;;;;;5095396;28;20423;-60
2021/11/13 01:20:47;;;;;;;6.72;1.42;;;;;;;;;;5090618;28;20028;-60
2021/11/13 01:23:13;;;;;;;7.15;1.75;;;;;;;;;;5097969;28;20518;-60
2021/11/13 01:25:39;;;;;;;4.75;1.52;;;;;;;;;;5096420;28;20127;-60
2021/11/13 01:28:04;;;;;;;5.35;1.60;;;;;;;;;;5094633;28;20039;-60
2021/11/13 01:30:30;;;;;;;7.35;1.38;;;;;;;;;;5097450;28;20046;-59
2021/11/13 01:32:56;;;;;;;2.92;1.00;;;;;;;;;;5091044;28;20114;-59
2021/11/13 01:35:22;;;;;;;9.05;1.27;;;;;;;;;;5084244;28;20071;-59
2021/11/13 01:37:48;;;;;;;6.38;1.63;;;;;;;;;;5093678;28;20024;-59
2021/11/13 01:40:17;;;;;;;9.13;1.45;;;;;;;;;;5094251;28;20036;-58
2021/11/13 01:42:44;;;;;;;9.88;2.17;;;;;;;;;;5093052;28;20510;-58
2021/11/13 01:45:11;;;;;;;5.85;1.55;;;;;;;;;;5092719;28;20036;-58
2021/11/13 01:47:38;;;;;;;5.70;1.40;;;;;;;;;;5094695;28;20032;-58
2021/11/13 01:50:11;;;;;;;6.18;1.50;;;;;;;;;;5074431;28;20027;-59
2021/11/13 01:52:37;;;;;;;7.43;1.55;;;;;;;;;;5095994;28;20035;-58
2021/11/13 01:55:03;;;;;;;6.75;1.88;;;;;;;;;;5089809;28;20028;-58
2021/11/13 01:57:34;;;;;;;6.47;1.48;;;;;;;;;;5088999;28;20024;-58
2021/11/13 01:59:59;;;;;;;5.43;1.55;;;;;;;;;;5093967;28;20080;-58
2021/11/13 02:02:25;;;;;;;7.97;1.65;;;;;;;;;;5089952;28;20504;-59
2021/11/13 02:04:50;;;;;;;7.70;1.48;;;;;;;;;;5091234;28;20027;-58
2021/11/13 02:07:16;;;;;;;10.18;1.58;;;;;;;;;;5089059;28;20046;-58
2021/11/13 02:09:41;;;;;;;5.88;1.65;;;;;;;;;;5075605;28;20471;-58
2021/11/13 02:12:07;;;;;;;3.63;1.58;;;;;;;;;;5094105;28;20048;-59
2021/11/13 02:14:33;;;;;;;4.70;1.33;;;;;;;;;;5095155;28;20483;-59
2021/11/13 02:16:59;;;;;;;6.95;1.58;;;;;;;;;;5090859;28;20042;-59
2021/11/13 02:19:25;;;;;;;5.65;1.85;;;;;;;;;;5093234;28;20028;-59
2021/11/13 02:21:50;;;;;;;6.43;1.40;;;;;;;;;;5095993;28;20552;-59
2021/11/13 02:24:16;;;;;;;6.82;1.42;;;;;;;;;;5078328;28;20428;-59
2021/11/13 02:26:42;;;;;;;6.72;1.60;;;;;;;;;;5096092;28;20027;-59
2021/11/13 02:29:07;;;;;;;6.97;1.50;;;;;;;;;;5098053;28;20071;-58
2021/11/13 02:31:43;;;;;;;7.03;1.50;;;;;;;;;;5095046;28;20110;-59
2021/11/13 02:34:11;;;;;;;2.67;1.10;;;;;;;;;;5102050;28;20034;-59
2021/11/13 02:36:38;;;;;;;5.53;2.08;;;;;;;;;;5093394;28;20843;-59
2021/11/13 02:39:06;;;;;;;3.58;1.15;;;;;;;;;;5095129;28;20035;-59
2021/11/13 02:41:32;;;;;;;9.23;1.05;;;;;;;;;;5084476;28;20023;-59
2021/11/13 02:43:58;;;;;;;7.78;1.17;;;;;;;;;;5093144;28;20036;-58
2021/11/13 02:46:26;;;;;;;2.67;1.60;;;;;;;;;;5096491;28;20138;-58
2021/11/13 02:48:51;;;;;;;5.43;1.05;;;;;;;;;;5099513;28;20020;-58
2021/11/13 02:51:17;;;;;;;5.15;0.90;;;;;;;;;;5094638;28;20076;-59
2021/11/13 02:53:45;;;;;;;5.78;0.90;;;;;;;;;;5074593;28;20056;-58
2021/11/13 02:56:11;;;;;;;6.70;1.00;;;;;;;;;;5093193;28;20035;-58
2021/11/13 02:58:39;;;;;;;2.28;0.63;;;;;;;;;;5080181;28;20020;-59
2021/11/13 03:01:17;;;;;;;1.15;0.25;;;;;;;;;;5091463;28;20031;-59
2021/11/13 03:03:47;;;;;;;2.17;0.20;;;;;;;;;;5095395;27;20030;-59
2021/11/13 03:06:14;;;;;;;5.78;0.60;;;;;;;;;;5093405;28;20023;-59
2021/11/13 03:08:41;;;;;;;2.33;0.22;;;;;;;;;;5082414;28;20151;-58
2021/11/13 03:11:09;;;;;;;5.78;0.45;;;;;;;;;;5084033;28;20055;-58
2021/11/13 03:13:37;;;;;;;0.43;0.22;;;;;;;;;;5097815;28;20035;-58
2021/11/13 03:16:04;;;;;;;3.20;0.30;;;;;;;;;;5097881;28;20030;-58
2021/11/13 03:18:30;;;;;;;1.83;0.30;;;;;;;;;;5093399;28;20119;-58
2021/11/13 03:20:56;;;;;;;1.13;0.40;;;;;;;;;;5096337;28;20124;-58
2021/11/13 03:23:22;;;;;;;4.05;0.57;;;;;;;;;;5093855;28;20502;-58
2021/11/13 03:25:58;;;;;;;1.38;0.30;;;;;;;;;;5081464;28;20043;-58
2021/11/13 03:28:27;;;;;;;5.30;1.08;;;;;;;;;;5091189;28;20055;-58
2021/11/13 03:30:53;;;;;;;2.67;0.32;;;;;;;;;;5095566;28;20035;-58
2021/11/13 03:33:18;;;;;;;1.45;0.20;;;;;;;;;;5093156;28;20508;-58
2021/11/13 03:35:44;;;;;;;1.30;0.20;;;;;;;;;;5078486;28;20448;-59
2021/11/13 03:38:13;;;;;;;1.70;0.15;;;;;;;;;;5096434;28;20031;-59
2021/11/13 03:40:46;;;;;;;1.05;0.22;;;;;;;;;;5093272;28;20038;-60
2021/11/13 03:43:13;;;;;;;4.90;0.10;;;;;;;;;;5094186;28;20028;-60
2021/11/13 03:45:39;;;;;;;3.92;0.13;;;;;;;;;;5098934;28;20093;-60
2021/11/13 03:48:05;;;;;;;2.40;0.20;;;;;;;;;;5076634;28;20456;-59
2021/11/13 03:50:31;;;;;;;1.52;0.30;;;;;;;;;;5096049;28;20026;-59
2021/11/13 03:52:57;;;;;;;1.00;0.30;;;;;;;;;;5100903;28;20197;-59
2021/11/13 03:55:24;;;;;;;3.13;0.40;;;;;;;;;;5094384;28;20032;-60
2021/11/13 03:57:50;;;;;;;1.00;0.30;;;;;;;;;;5096374;28;20040;-59
2021/11/13 04:00:17;;;;;;;1.38;0.30;;;;;;;;;;5093004;28;20036;-59
2021/11/13 04:02:45;;;;;;;3.90;0.47;;;;;;;;;;5097902;28;20027;-59
2021/11/13 04:05:11;;;;;;;1.60;0.20;;;;;;;;;;5091942;28;20115;-59
2021/11/13 04:07:37;;;;;;;2.10;0.30;;;;;;;;;;5096097;28;20106;-59
2021/11/13 04:10:06;;;;;;;6.07;1.00;;;;;;;;;;5093071;28;20114;-59
2021/11/13 04:12:33;;;;;;;7.03;1.20;;;;;;;;;;5100917;28;20055;-59
2021/11/13 04:14:58;;;;;;;4.45;1.52;;;;;;;;;;5092980;28;20039;-60
2021/11/13 04:17:24;;;;;;;8.15;1.23;;;;;;;;;;5098026;28;20040;-59
2021/11/13 04:19:50;;;;;;;3.60;1.20;;;;;;;;;;5093760;28;20063;-59
2021/11/13 04:22:15;;;;;;;4.35;1.98;;;;;;;;;;5097061;28;20111;-59
2021/11/13 04:24:41;;;;;;;5.03;1.52;;;;;;;;;;5076615;28;20032;-58
2021/11/13 04:27:07;;;;;;;6.05;1.75;;;;;;;;;;5095972;28;20063;-59
2021/11/13 04:29:32;;;;;;;7.13;1.75;;;;;;;;;;5095699;28;20023;-58
2021/11/13 04:31:58;;;;;;;5.93;1.95;;;;;;;;;;5095116;28;20027;-59
2021/11/13 04:34:25;;;;;;;7.15;2.05;;;;;;;;;;5097535;28;20097;-58
2021/11/13 04:36:53;;;;;;;5.63;2.13;;;;;;;;;;5096619;28;20076;-59
2021/11/13 04:39:22;;;;;;;5.97;1.92;;;;;;;;;;5096461;28;20057;-58
2021/11/13 04:41:49;;;;;;;7.90;2.45;;;;;;;;;;5094459;28;20035;-58
2021/11/13 04:44:15;;;;;;;5.00;2.20;;;;;;;;;;5092138;28;20039;-58
2021/11/13 04:46:40;;;;;;;7.28;2.20;;;;;;;;;;5091572;28;20113;-58
2021/11/13 04:49:06;;;;;;;5.72;1.98;;;;;;;;;;5097958;28;20106;-59
2021/11/13 04:51:32;;;;;;;5.43;2.08;;;;;;;;;;5093081;28;20051;-59
2021/11/13 04:53:57;;;;;;;10.00;2.20;;;;;;;;;;5098776;28;20027;-59
2021/11/13 04:56:23;;;;;;;4.55;1.98;;;;;;;;;;5096296;28;20516;-59
2021/11/13 04:58:48;;;;;;;5.60;1.95;;;;;;;;;;5098792;28;20067;-59
2021/11/13 05:01:14;;;;;;;6.50;2.10;;;;;;;;;;5093451;28;20023;-59
2021/11/13 05:03:39;;;;;;;4.80;1.55;;;;;;;;;;5075918;28;20028;-58
2021/11/13 05:06:05;;;;;;;5.63;2.13;;;;;;;;;;5094842;28;20092;-59
2021/11/13 05:08:31;;;;;;;5.18;2.10;;;;;;;;;;5094380;28;20027;-58
2021/11/13 05:10:56;;;;;;;6.28;2.60;;;;;;;;;;5092370;28;20375;-58
2021/11/13 05:13:22;;;;;;;9.85;2.00;;;;;;;;;;5095508;28;20054;-58
2021/11/13 05:15:48;;;;;;;7.55;2.00;;;;;;;;;;5095285;28;20085;-58
2021/11/13 05:18:14;;;;;;;5.38;2.30;;;;;;;;;;5094947;28;20103;-58
2021/11/13 05:20:39;;;;;;;9.35;2.22;;;;;;;;;;5092555;28;20399;-58
2021/11/13 05:23:05;;;;;;;7.60;2.10;;;;;;;;;;5090038;28;20043;-58
2021/11/13 05:25:31;;;;;;;8.38;2.30;;;;;;;;;;5096487;28;20080;-58
2021/11/13 05:27:57;;;;;;;12.30;1.92;;;;;;;;;;5093637;28;20024;-58
2021/11/13 05:30:24;;;;;;;4.20;1.60;;;;;;;;;;5094836;28;20115;-58
2021/11/13 05:32:51;;;;;;;8.80;2.30;;;;;;;;;;5090123;28;20065;-58
2021/11/13 05:35:18;;;;;;;9.27;2.30;;;;;;;;;;5090015;28;20695;-58
2021/11/13 05:37:45;;;;;;;8.65;2.42;;;;;;;;;;5090692;28;20028;-59
2021/11/13 05:40:12;;;;;;;4.18;1.75;;;;;;;;;;5097305;28;20024;-59
2021/11/13 05:42:39;;;;;;;9.38;2.05;;;;;;;;;;5091725;28;20065;-59
2021/11/13 05:45:07;;;;;;;7.32;2.28;;;;;;;;;;5092144;28;20035;-59
2021/11/13 05:47:33;;;;;;;6.15;2.13;;;;;;;;;;5089252;28;20024;-59
2021/11/13 05:49:59;;;;;;;12.70;3.72;;;;;;;;;;5095371;28;20023;-59
2021/11/13 05:52:24;;;;;;;9.90;2.13;;;;;;;;;;5090704;28;20035;-59
2021/11/13 05:54:50;;;;;;;9.27;2.20;;;;;;;;;;5093097;28;20114;-59
2021/11/13 05:57:15;;;;;;;8.52;2.47;;;;;;;;;;5096780;28;20035;-59
2021/11/13 05:59:41;;;;;;;9.73;2.10;;;;;;;;;;5092729;28;20499;-58
2021/11/13 06:02:07;;;;;;;10.05;2.22;;;;;;;;;;5094753;28;20032;-59
2021/11/13 06:04:32;;;;;;;14.20;2.75;;;;;;;;;;5099551;28;20114;-58
2021/11/13 06:06:59;;;;;;;4.75;1.98;;;;;;;;;;5094276;28;20034;-59
2021/11/13 06:09:25;;;;;;;5.97;1.77;;;;;;;;;;5099397;28;20032;-58
2021/11/13 06:11:51;;;;;;;16.08;2.40;;;;;;;;;;5095480;28;20111;-59
2021/11/13 06:14:17;;;;;;;10.98;2.00;;;;;;;;;;5103268;28;22296;-59
2021/11/13 06:16:42;;;;;;;8.60;2.55;;;;;;;;;;5094376;28;20039;-59
2021/11/13 06:19:08;;;;;;;10.25;2.40;;;;;;;;;;5099509;28;20463;-60
2021/11/13 06:21:33;;;;;;;7.28;2.40;;;;;;;;;;5102556;28;20035;-59
2021/11/13 06:23:59;;;;;;;6.40;2.30;;;;;;;;;;5098215;28;20135;-59
2021/11/13 06:26:24;;;;;;;10.32;2.40;;;;;;;;;;5096743;28;20031;-60
2021/11/13 06:28:50;;;;;;;7.82;2.10;;;;;;;;;;5094353;28;20111;-58
2021/11/13 06:31:15;;;;;;;11.02;1.90;;;;;;;;;;5096754;28;20073;-59
2021/11/13 06:33:41;;;;;;;8.55;1.90;;;;;;;;;;5094732;28;20386;-59
2021/11/13 06:36:07;;;;;;;7.22;1.90;;;;;;;;;;5101648;28;20103;-59
2021/11/13 06:38:33;;;;;;;10.20;1.55;;;;;;;;;;5094728;28;20036;-59
2021/11/13 06:40:59;;;;;;;12.35;1.83;;;;;;;;;;5102085;28;20023;-59
2021/11/13 06:43:24;;;;;;;5.85;1.83;;;;;;;;;;5094734;28;20074;-58
2021/11/13 06:45:50;;;;;;;12.18;1.55;;;;;;;;;;5094666;28;20042;-60
2021/11/13 06:48:16;;;;;;;4.35;1.33;;;;;;;;;;5098806;28;20076;-59
2021/11/13 06:50:42;;;;;;;15.63;1.92;;;;;;;;;;5097203;28;20032;-59
2021/11/13 06:53:08;;;;;;;9.25;2.00;;;;;;;;;;5088947;28;20035;-59
2021/11/13 06:55:33;;;;;;;12.30;1.90;;;;;;;;;;5097777;28;20024;-58
2021/11/13 06:57:59;;;;;;;15.88;2.13;;;;;;;;;;5099000;28;20031;-58
2021/11/13 07:00:26;;;;;;;16.48;1.67;;;;;;;;;;5098172;28;20488;-58
2021/11/13 07:02:52;;;;;;;8.75;1.50;;;;;;;;;;5097438;28;20032;-58
2021/11/13 07:05:18;;;;;;;10.93;1.40;;;;;;;;;;5096960;27;20406;-58
2021/11/13 07:07:44;;;;;;;12.43;1.65;;;;;;;;;;5102512;28;20397;-58
2021/11/13 07:10:13;;;;;;;15.20;1.63;;;;;;;;;;5102141;28;20027;-59
2021/11/13 07:12:39;;;;;;;10.45;1.30;;;;;;;;;;5098180;28;20076;-59
2021/11/13 07:15:07;;;;;;;8.93;1.95;;;;;;;;;;5093973;28;20104;-57
2021/11/13 07:17:32;;;;;;;22.27;1.83;;;;;;;;;;5079533;28;20061;-59
2021/11/13 07:19:58;;;;;;;10.57;1.45;;;;;;;;;;5105260;28;20028;-59
2021/11/13 07:22:24;;;;;;;11.65;1.40;;;;;;;;;;5093397;28;20129;-59
2021/11/13 07:24:49;;;;;;;12.15;1.58;;;;;;;;;;5082846;28;20487;-59
2021/11/13 07:27:16;;;;;;;15.27;1.92;;;;;;;;;;5098961;28;20027;-59
2021/11/13 07:30:04;;;;;;;6.35;0.98;;;;;;;;;;5101930;28;20043;-59
2021/11/13 07:32:28;;;;;;;15.98;2.28;;;;;;;;;;5100595;28;20043;-59
2021/11/13 07:34:54;;;;;;;8.68;1.33;;;;;;;;;;5082127;28;20423;-59
2021/11/13 07:37:21;;;;;;;8.73;1.70;;;;;;;;;;5095652;28;20040;-59
2021/11/13 07:39:47;;;;;;;19.92;1.48;;;;;;;;;;5100279;28;20023;-59
2021/11/13 07:42:12;;;;;;;12.88;1.85;;;;;;;;;;5091787;28;20201;-59
2021/11/13 07:44:38;;;;;;;7.78;0.82;;;;;;;;;;5090217;28;20494;-60
2021/11/13 07:47:04;;;;;;;17.48;1.70;;;;;;;;;;5092473;27;20032;-59
2021/11/13 07:49:29;;;;;;;3.72;1.10;;;;;;;;;;5096278;28;20569;-60
2021/11/13 07:51:55;;;;;;;9.18;1.40;;;;;;;;;;5097629;28;20040;-59
2021/11/13 07:54:21;;;;;;;9.02;1.02;;;;;;;;;;5097340;28;20331;-59
2021/11/13 07:56:48;;;;;;;16.70;1.75;;;;;;;;;;5093026;28;20024;-59
2021/11/13 07:59:14;;;;;;;12.68;1.52;;;;;;;;;;5095232;28;20521;-59
2021/11/13 08:01:41;;;;;;;13.45;1.02;;;;;;;;;;5091343;28;20032;-59
2021/11/13 08:04:06;;;;;;;10.32;1.10;;;;;;;;;;5093602;27;20490;-60
2021/11/13 08:06:32;;;;;;;6.53;1.40;;;;;;;;;;5102149;27;20043;-59
2021/11/13 08:08:57;;;;;;;11.00;1.20;;;;;;;;;;5096415;27;20051;-59
2021/11/13 08:11:23;;;;;;;5.57;1.00;;;;;;;;;;5098116;27;20059;-59
2021/11/13 08:13:49;;;;;;;6.03;1.83;;;;;;;;;;5091927;28;20023;-59
2021/11/13 08:16:14;;;;;;;8.73;1.10;;;;;;;;;;5096516;27;20043;-58
2021/11/13 08:18:40;;;;;;;8.73;1.10;;;;;;;;;;5092911;27;20081;-59
2021/11/13 08:21:06;;;;;;;16.38;1.60;;;;;;;;;;5093329;28;20027;-59
2021/11/13 08:23:32;;;;;;;10.10;1.70;;;;;;;;;;5093160;28;20448;-59
2021/11/13 08:25:58;;;;;;;14.63;2.03;;;;;;;;;;5091293;28;20070;-59
2021/11/13 08:28:24;;;;;;;10.07;1.30;;;;;;;;;;5094997;28;20029;-60
2021/11/13 08:30:51;;;;;;;8.18;1.23;;;;;;;;;;5091975;28;20028;-59
2021/11/13 08:33:17;;;;;;;12.90;1.50;;;;;;;;;;5089153;28;20107;-59
2021/11/13 08:35:45;;;;;;;18.95;1.75;;;;;;;;;;5092298;28;20032;-60
2021/11/13 08:38:16;;;;;;;14.57;2.75;;;;;;;;;;5064604;28;20058;-60
2021/11/13 08:40:42;;;;;;;13.10;2.38;;;;;;;;;;5096754;28;20019;-60
2021/11/13 08:43:18;;;;;;;14.50;2.20;;;;;;;;;;5042968;27;21037;-59
2021/11/13 08:45:44;;;;;;;17.08;1.98;;;;;;;;;;5046460;28;20042;-59
2021/11/13 08:48:10;;;;;;;19.50;2.20;;;;;;;;;;5046471;28;20065;-59
2021/11/13 08:50:36;;;;;;;16.58;1.92;;;;;;;;;;5045355;28;20106;-58
2021/11/13 08:53:04;;;;;;;13.40;2.08;;;;;;;;;;5041603;28;20127;-59
2021/11/13 08:55:32;;;;;;;8.60;1.42;;;;;;;;;;5044071;28;20029;-58
2021/11/13 08:57:59;;;;;;;9.18;1.70;;;;;;;;;;5046108;28;20029;-59
2021/11/13 09:00:56;;;;;;;10.07;1.83;;;;;;;;;;5050324;28;20048;-59
2021/11/13 09:03:23;;;;;;;15.05;2.80;;;;;;;;;;5045573;28;20542;-58
2021/11/13 09:05:50;;;;;;;14.00;3.05;;;;;;;;;;5041282;28;20052;-59
2021/11/13 09:08:16;;;;;;;14.98;2.75;;;;;;;;;;5043102;28;20025;-59
2021/11/13 09:10:44;;;;;;;20.75;2.40;;;;;;;;;;5070731;28;20037;-59
2021/11/13 09:13:10;;;;;;;20.52;3.13;;;;;;;;;;5038544;28;20025;-59
2021/11/13 09:15:37;;;;;;;12.73;1.98;;;;;;;;;;5035324;28;20048;-59
2021/11/13 09:18:04;;;;;;;9.60;2.03;;;;;;;;;;5031984;28;20116;-59
2021/11/13 09:20:31;;;;;;;21.52;3.30;;;;;;;;;;5034042;28;20167;-59
2021/11/13 09:22:57;;;;;;;16.77;3.42;;;;;;;;;;5037185;28;20456;-59
2021/11/13 09:25:22;;;;;;;12.75;2.40;;;;;;;;;;5038475;28;20029;-59
2021/11/13 09:27:49;;;;;;;22.02;4.45;;;;;;;;;;5034095;28;20408;-58
2021/11/13 09:30:18;;;;;;;16.73;4.65;;;;;;;;;;5041959;28;20032;-59
2021/11/13 09:32:46;;;;;;;18.80;4.38;;;;;;;;;;5037813;28;20037;-59
2021/11/13 09:35:11;;;;;;;21.20;5.18;;;;;;;;;;5042808;28;20384;-59
2021/11/13 09:37:39;;;;;;;27.25;4.63;;;;;;;;;;5043437;28;20029;-62
2021/11/13 09:40:05;;;;;;;25.42;5.55;;;;;;;;;;5031855;28;20072;-69
2021/11/13 09:42:31;;;;;;;20.38;4.35;;;;;;;;;;5034179;28;20144;-63
2021/11/13 09:44:57;;;;;;;26.55;5.07;;;;;;;;;;5004538;28;20051;-60
2021/11/13 09:47:23;;;;;;;21.02;5.32;;;;;;;;;;5031133;28;20492;-61
2021/11/13 09:49:50;;;;;;;22.08;4.40;;;;;;;;;;5044019;28;20040;-65
2021/11/13 09:52:15;;;;;;;33.58;6.28;;;;;;;;;;5045219;28;20036;-62
2021/11/13 09:54:42;;;;;;;25.40;5.25;;;;;;;;;;5020294;28;20439;-62
2021/11/13 09:57:08;;;;;;;19.08;5.53;;;;;;;;;;5020741;28;20029;-62
2021/11/13 09:59:34;;;;;;;18.10;4.78;;;;;;;;;;5017813;28;20028;-65
2021/11/13 10:02:00;;;;;;;19.13;5.32;;;;;;;;;;5014272;28;20025;-63
2021/11/13 10:04:26;;;;;;;22.95;5.57;;;;;;;;;;5018966;28;20090;-63
2021/11/13 10:06:52;;;;;;;14.63;4.05;;;;;;;;;;5018964;28;20040;-61
2021/11/13 10:09:17;;;;;;;26.25;5.80;;;;;;;;;;5024513;28;20547;-62
2021/11/13 10:11:49;;;;;;;17.70;4.43;;;;;;;;;;5014661;28;20040;-62
2021/11/13 10:14:15;;;;;;;26.10;4.53;;;;;;;;;;5026072;28;20093;-62
2021/11/13 10:16:46;;;;;;;12.48;2.95;;;;;;;;;;5030712;28;20037;-62
2021/11/13 10:19:16;;;;;;;15.93;2.92;;;;;;;;;;5023895;28;20033;-63
2021/11/13 10:21:46;;;;;;;11.98;3.38;;;;;;;;;;5033118;28;20032;-63
2021/11/13 10:24:20;;;;;;;18.52;5.03;;;;;;;;;;5028584;28;20459;-63
2021/11/13 10:26:54;;;;;;;16.85;4.28;;;;;;;;;;5027540;28;20488;-62
2021/11/13 10:29:24;;;;;;;5.82;2.40;;;;;;;;;;5026227;28;20501;-63
2021/11/13 10:31:51;;;;;;;6.43;2.25;;;;;;;;;;5023868;28;20026;-65
2021/11/13 10:34:20;;;;;;;12.48;2.78;;;;;;;;;;5034072;28;20037;-63
2021/11/13 10:36:58;;;;;;;11.32;2.22;;;;;;;;;;5025187;28;20475;-63
2021/11/13 10:39:39;;;;;;;12.57;2.65;;;;;;;;;;5020839;28;20033;-62
2021/11/13 10:42:05;;;;;;;7.00;2.35;;;;;;;;;;5021998;28;20056;-61
2021/11/13 10:44:39;;;;;;;7.40;1.80;;;;;;;;;;5026851;28;20018;-62
2021/11/13 10:47:33;;;;;;;7.57;2.20;;;;;;;;;;5026323;28;20025;-62
2021/11/13 10:50:24;;;;;;;19.20;2.17;;;;;;;;;;5024965;28;20135;-63
2021/11/13 10:53:15;;;;;;;8.75;2.45;;;;;;;;;;5019473;28;20659;-60
2021/11/13 10:56:00;;;;;;;9.57;2.40;;;;;;;;;;5016795;28;20030;-61
2021/11/13 10:58:30;;;;;;;10.65;2.72;;;;;;;;;;5026198;28;20439;-61
2021/11/13 11:00:57;;;;;;;6.72;2.03;;;;;;;;;;5023985;28;20065;-62
2021/11/13 11:03:48;;;;;;;7.55;2.67;;;;;;;;;;5025215;28;20033;-61
2021/11/13 11:06:24;;;;;;;8.63;3.08;;;;;;;;;;5015109;28;20117;-63
2021/11/13 11:08:50;;;;;;;6.25;1.88;;;;;;;;;;5017297;28;20076;-59
2021/11/13 11:11:35;;;;;;;9.30;2.20;;;;;;;;;;5022300;28;20042;-59
2021/11/13 11:14:04;;;;;;;6.55;2.30;;;;;;;;;;5023402;28;20488;-59
2021/11/13 11:16:37;;;;;;;4.80;1.52;;;;;;;;;;5024684;28;20111;-59
2021/11/13 11:19:08;;;;;;;8.85;1.55;;;;;;;;;;5021969;28;20478;-58
2021/11/13 11:21:42;;;;;;;7.00;1.60;;;;;;;;;;5013999;28;20038;-58
2021/11/13 11:24:21;;;;;;;8.02;2.25;;;;;;;;;;5016605;28;20524;-58
2021/11/13 11:26:57;;;;;;;9.05;1.63;;;;;;;;;;5015330;28;20084;-58
2021/11/13 11:29:23;;;;;;;14.20;2.17;;;;;;;;;;5021142;28;20061;-58
2021/11/13 11:31:52;;;;;;;4.78;1.73;;;;;;;;;;5018951;28;20079;-58
2021/11/13 11:34:39;;;;;;;4.57;1.25;;;;;;;;;;5022076;28;20041;-59
2021/11/13 11:37:09;;;;;;;9.65;0.82;;;;;;;;;;5020687;28;20520;-58
2021/11/13 11:39:35;;;;;;;2.17;0.90;;;;;;;;;;5019010;28;20277;-58
2021/11/13 11:42:01;;;;;;;6.05;2.03;;;;;;;;;;5021434;28;20219;-58
2021/11/13 11:44:27;;;;;;;3.67;0.90;;;;;;;;;;5022797;28;20038;-59
2021/11/13 11:46:53;;;;;;;2.05;0.88;;;;;;;;;;5017477;28;20083;-58
2021/11/13 11:49:19;;;;;;;2.20;0.60;;;;;;;;;;5021861;28;20519;-59
2021/11/13 11:51:46;;;;;;;2.72;0.77;;;;;;;;;;5017883;28;20029;-59
2021/11/13 11:54:13;;;;;;;6.30;1.65;;;;;;;;;;5020071;28;20105;-58
2021/11/13 11:56:39;;;;;;;1.52;0.60;;;;;;;;;;5016530;28;20030;-59
2021/11/13 11:59:06;;;;;;;3.10;0.77;;;;;;;;;;5017253;28;20090;-58
2021/11/13 12:01:38;;;;;;;2.83;1.00;;;;;;;;;;5024358;28;20473;-58
2021/11/13 12:04:22;;;;;;;3.72;0.82;;;;;;;;;;5017712;28;20463;-58
2021/11/13 12:06:56;;;;;;;4.45;0.68;;;;;;;;;;5018018;28;20025;-58
2021/11/13 12:09:24;;;;;;;1.23;0.50;;;;;;;;;;5020038;28;20060;-59
2021/11/13 12:12:19;;;;;;;4.88;0.85;;;;;;;;;;5015809;28;20045;-58
2021/11/13 12:14:45;;;;;;;6.28;0.68;;;;;;;;;;5015128;28;20109;-59
2021/11/13 12:17:35;;;;;;;2.35;0.70;;;;;;;;;;5020560;28;20028;-59
2021/11/13 12:20:04;;;;;;;3.38;0.90;;;;;;;;;;5016472;28;20068;-58
2021/11/13 12:22:35;;;;;;;3.10;0.90;;;;;;;;;;5018653;28;20034;-59
2021/11/13 12:25:24;;;;;;;2.22;0.80;;;;;;;;;;5019027;28;20080;-58
2021/11/13 12:28:07;;;;;;;1.42;0.40;;;;;;;;;;5018497;28;20555;-59
2021/11/13 12:30:49;;;;;;;1.90;0.55;;;;;;;;;;5018960;28;20033;-58
2021/11/13 12:33:45;;;;;;;5.60;0.95;;;;;;;;;;5022302;28;20040;-58
2021/11/13 12:36:16;;;;;;;1.95;0.43;;;;;;;;;;5013616;28;20127;-58
2021/11/13 12:38:52;;;;;;;1.42;0.70;;;;;;;;;;5023456;28;20429;-58
2021/11/13 12:41:27;;;;;;;2.35;0.90;;;;;;;;;;5021601;28;20160;-58
2021/11/13 12:43:56;;;;;;;6.22;1.10;;;;;;;;;;5024117;28;20041;-58
2021/11/13 12:46:44;;;;;;;5.43;1.20;;;;;;;;;;5012942;28;20033;-57
2021/11/13 12:49:15;;;;;;;2.67;0.93;;;;;;;;;;5010811;28;20411;-58
2021/11/13 12:52:07;;;;;;;3.78;1.30;;;;;;;;;;5015112;28;20026;-58
2021/11/13 12:54:37;;;;;;;3.30;1.55;;;;;;;;;;5021867;28;20037;-57
2021/11/13 12:57:06;;;;;;;6.38;1.42;;;;;;;;;;5019640;28;20030;-58
2021/11/13 12:59:35;;;;;;;2.25;1.00;;;;;;;;;;5018785;28;20029;-58
2021/11/13 13:02:03;;;;;;;6.20;1.00;;;;;;;;;;5015986;28;20049;-58
2021/11/13 13:04:32;;;;;;;1.77;0.80;;;;;;;;;;5022038;28;20037;-57
2021/11/13 13:06:58;;;;;;;3.70;1.13;;;;;;;;;;5028834;28;20033;-58
2021/11/13 13:09:24;;;;;;;1.25;0.73;;;;;;;;;;5020784;28;20033;-58
2021/11/13 13:11:56;;;;;;;4.95;0.90;;;;;;;;;;5020236;28;20361;-58
2021/11/13 13:14:28;;;;;;;2.97;0.75;;;;;;;;;;5019204;28;20105;-58
2021/11/13 13:16:54;;;;;;;4.65;0.98;;;;;;;;;;5018827;28;20033;-58
2021/11/13 13:19:39;;;;;;;4.15;1.17;;;;;;;;;;5018061;28;20037;-58
2021/11/13 13:22:09;;;;;;;2.88;1.20;;;;;;;;;;5024883;28;20512;-58
2021/11/13 13:24:37;;;;;;;3.40;0.75;;;;;;;;;;5020231;28;20038;-58
2021/11/13 13:27:13;;;;;;;4.25;1.17;;;;;;;;;;5018772;28;20052;-58
2021/11/13 13:29:41;;;;;;;6.63;1.20;;;;;;;;;;5024502;28;21965;-59
2021/11/13 13:32:12;;;;;;;3.03;0.85;;;;;;;;;;5024337;28;20072;-59
2021/11/13 13:34:59;;;;;;;2.55;0.98;;;;;;;;;;5030247;28;20032;-58
2021/11/13 13:37:49;;;;;;;4.93;0.80;;;;;;;;;;5018996;28;20025;-59
2021/11/13 13:40:42;;;;;;;1.67;0.70;;;;;;;;;;5019562;28;20029;-59
2021/11/13 13:43:26;;;;;;;8.93;0.90;;;;;;;;;;5023733;28;20550;-58
2021/11/13 13:46:03;;;;;;;3.63;0.80;;;;;;;;;;5029573;28;20033;-59
2021/11/13 13:48:37;;;;;;;5.03;1.33;;;;;;;;;;5025987;28;20100;-59
2021/11/13 13:51:06;;;;;;;4.90;1.38;;;;;;;;;;5026965;28;20501;-59
2021/11/13 13:53:44;;;;;;;5.82;0.80;;;;;;;;;;5025923;28;20059;-58
2021/11/13 13:56:29;;;;;;;6.40;1.38;;;;;;;;;;5026676;28;20040;-58
2021/11/13 13:58:56;;;;;;;1.73;0.85;;;;;;;;;;5022680;28;20040;-59
2021/11/13 14:01:22;;;;;;;12.00;0.88;;;;;;;;;;5026738;28;20490;-59
2021/11/13 14:03:48;;;;;;;2.83;0.85;;;;;;;;;;5025866;28;20053;-58
2021/11/13 14:06:14;;;;;;;2.05;1.00;;;;;;;;;;5024089;28;20550;-58
2021/11/13 14:08:49;;;;;;;4.32;0.93;;;;;;;;;;5024135;28;20060;-58
2021/11/13 14:11:23;;;;;;;3.05;0.95;;;;;;;;;;5025401;28;20033;-58
2021/11/13 14:13:49;;;;;;;6.60;1.38;;;;;;;;;;5028481;28;20026;-59
2021/11/13 14:16:14;;;;;;;7.47;1.35;;;;;;;;;;5027867;28;20037;-59
2021/11/13 14:18:41;;;;;;;4.88;1.25;;;;;;;;;;5025858;28;20043;-59
2021/11/13 14:21:07;;;;;;;5.78;1.13;;;;;;;;;;5024356;28;20029;-59
2021/11/13 14:23:44;;;;;;;9.15;1.10;;;;;;;;;;5023816;28;20409;-59
2021/11/13 14:26:19;;;;;;;7.57;1.40;;;;;;;;;;5021591;28;20091;-59
2021/11/13 14:29:06;;;;;;;7.68;2.50;;;;;;;;;;5024512;28;20036;-58
2021/11/13 14:31:39;;;;;;;6.13;1.45;;;;;;;;;;5018815;28;20160;-59
2021/11/13 14:34:16;;;;;;;8.25;1.33;;;;;;;;;;5020131;28;20041;-59
2021/11/13 14:36:45;;;;;;;9.02;1.60;;;;;;;;;;5024203;28;20048;-58
2021/11/13 14:39:14;;;;;;;7.82;2.67;;;;;;;;;;5013922;28;20064;-59
2021/11/13 14:41:41;;;;;;;7.00;1.95;;;;;;;;;;5024497;28;20076;-59
2021/11/13 14:44:36;;;;;;;11.30;2.25;;;;;;;;;;5023824;28;20037;-58
2021/11/13 14:47:08;;;;;;;15.05;2.80;;;;;;;;;;5024786;28;20038;-58